Time;durP1;ratioP1;P1;durP2;ratioP2;P2;SDS_P1;SDS_P2;PMS_P1;PMS_P2;Temp;Humidity;BMP_temperature;BMP_pressure;BME280_temperature;BME280_humidity;BME280_pressure;Samples;Min_cycle;Max_cycle;Signal;HPM_P1;HPM_P2
2023/07/09 00:02:22;;;;;;;;;;;;;;;;;;5045445;28;4618;-59
2023/07/09 00:04:48;;;;;;;;;;;;;;;;;;5046144;28;5200;-59
2023/07/09 00:07:21;;;;;;;;;;;;;;;;;;5044685;28;4632;-60
2023/07/09 00:09:47;;;;;;;;;;;;;;;;;;5060490;28;1397;-59
2023/07/09 00:12:13;;;;;;;;;;;;;;;;;;5042875;28;5071;-59
2023/07/09 00:14:38;;;;;;;;;;;;;;;;;;5043647;28;4585;-59
2023/07/09 00:17:04;;;;;;;;;;;;;;;;;;5041553;28;5134;-59
2023/07/09 00:19:29;;;;;;;;;;;;;;;;;;5044428;28;5100;-59
2023/07/09 00:21:55;;;;;;;;;;;;;;;;;;5043832;28;4937;-59
2023/07/09 00:24:20;;;;;;;;;;;;;;;;;;5044279;28;4837;-59
2023/07/09 00:26:48;;;;;;;;;;;;;;;;;;5044658;28;5474;-59
2023/07/09 00:29:13;;;;;;;;;;;;;;;;;;5043556;28;5074;-59
2023/07/09 00:31:40;;;;;;;;;;;;;;;;;;5041937;28;5056;-59
2023/07/09 00:34:06;;;;;;;;;;;;;;;;;;5046307;28;4867;-59
2023/07/09 00:36:31;;;;;;;;;;;;;;;;;;5042482;28;1398;-59
2023/07/09 00:38:59;;;;;;;;;;;;;;;;;;5039917;28;4575;-59
2023/07/09 00:41:24;;;;;;;;;;;;;;;;;;5045251;28;5048;-59
2023/07/09 00:43:50;;;;;;;;;;;;;;;;;;5044195;28;4607;-59
2023/07/09 00:46:25;;;;;;;;;;;;;;;;;;5040167;28;5061;-59
2023/07/09 00:49:10;;;;;;;;;;;;;;;;;;5043529;28;1052;-59
2023/07/09 00:51:41;;;;;;;;;;;;;;;;;;5043776;28;4441;-59
2023/07/09 00:54:30;;;;;;;;;;;;;;;;;;5041069;28;5300;-59
2023/07/09 00:56:57;;;;;;;;;;;;;;;;;;5044647;28;4939;-59
2023/07/09 00:59:23;;;;;;;;;;;;;;;;;;5056417;28;4646;-59
2023/07/09 01:01:49;;;;;;;;;;;;;;;;;;5048364;28;5034;-59
2023/07/09 01:04:16;;;;;;;;;;;;;;;;;;5038169;28;4622;-59
2023/07/09 01:06:43;;;;;;;;;;;;;;;;;;5038723;28;1345;-58
2023/07/09 01:09:08;;;;;;;;;;;;;;;;;;5039801;28;4838;-58
2023/07/09 01:11:34;;;;;;;;;;;;;;;;;;5024569;28;4962;-59
2023/07/09 01:13:59;;;;;;;;;;;;;;;;;;5016450;28;5164;-58
2023/07/09 01:16:35;;;;;;;;;;;;;;;;;;5006571;28;4610;-59
2023/07/09 01:19:00;;;;;;;;;;;;;;;;;;5003196;28;2455;-58
2023/07/09 01:21:27;;;;;;;;;;;;;;;;;;5009565;28;4942;-58
2023/07/09 01:23:52;;;;;;;;;;;;;;;;;;5008786;28;4521;-59
2023/07/09 01:26:24;;;;;;;;;;;;;;;;;;5010455;28;4778;-58
2023/07/09 01:28:50;;;;;;;;;;;;;;;;;;5001843;28;5286;-58
2023/07/09 01:31:15;;;;;;;;;;;;;;;;;;5005352;28;5088;-59
2023/07/09 01:33:41;;;;;;;;;;;;;;;;;;5008189;28;1605;-59
2023/07/09 01:36:07;;;;;;;;;;;;;;;;;;5003223;28;4963;-59
2023/07/09 01:38:32;;;;;;;;;;;;;;;;;;5020645;28;4622;-59
2023/07/09 01:40:57;;;;;;;;;;;;;;;;;;5027845;28;4460;-58
2023/07/09 01:43:24;;;;;;;;;;;;;;;;;;5023581;28;5011;-58
2023/07/09 01:45:51;;;;;;;;;;;;;;;;;;5017067;28;1538;-58
2023/07/09 01:48:16;;;;;;;;;;;;;;;;;;5008315;28;5056;-58
2023/07/09 01:50:43;;;;;;;;;;;;;;;;;;5008870;28;4859;-58
2023/07/09 01:53:08;;;;;;;;;;;;;;;;;;4991862;28;5065;-58
2023/07/09 01:55:34;;;;;;;;;;;;;;;;;;5007387;28;4991;-59
2023/07/09 01:57:59;;;;;;;;;;;;;;;;;;5008698;28;1511;-58
2023/07/09 02:00:24;;;;;;;;;;;;;;;;;;5008174;28;4453;-59
2023/07/09 02:02:50;;;;;;;;;;;;;;;;;;5008676;28;5024;-58
2023/07/09 02:05:16;;;;;;;;;;;;;;;;;;5009325;28;5400;-58
2023/07/09 02:07:41;;;;;;;;;;;;;;;;;;5009014;28;5078;-58
2023/07/09 02:10:07;;;;;;;;;;;;;;;;;;5008885;28;4960;-58
2023/07/09 02:12:32;;;;;;;;;;;;;;;;;;5010063;28;1332;-58
2023/07/09 02:14:57;;;;;;;;;;;;;;;;;;5006889;28;4927;-58
2023/07/09 02:17:23;;;;;;;;;;;;;;;;;;5008938;28;4652;-59
2023/07/09 02:19:48;;;;;;;;;;;;;;;;;;5030364;28;5033;-59
2023/07/09 02:22:13;;;;;;;;;;;;;;;;;;5028608;28;5021;-59
2023/07/09 02:24:38;;;;;;;;;;;;;;;;;;5029534;28;1609;-59
2023/07/09 02:27:05;;;;;;;;;;;;;;;;;;5029464;28;4592;-59
2023/07/09 02:29:30;;;;;;;;;;;;;;;;;;5029266;28;5094;-59
2023/07/09 02:31:56;;;;;;;;;;;;;;;;;;5029316;28;4455;-59
2023/07/09 02:34:25;;;;;;;;;;;;;;;;;;5028816;28;4884;-60
2023/07/09 02:36:51;;;;;;;;;;;;;;;;;;5028262;28;1367;-59
2023/07/09 02:39:16;;;;;;;;;;;;;;;;;;5029136;28;4960;-59
2023/07/09 02:41:41;;;;;;;;;;;;;;;;;;5029050;28;4615;-60
2023/07/09 02:44:06;;;;;;;;;;;;;;;;;;5028859;28;4962;-59
2023/07/09 02:46:32;;;;;;;;;;;;;;;;;;5029121;28;4740;-59
2023/07/09 02:48:57;;;;;;;;;;;;;;;;;;5028493;28;1382;-59
2023/07/09 02:51:24;;;;;;;;;;;;;;;;;;5028824;28;4965;-59
2023/07/09 02:53:49;;;;;;;;;;;;;;;;;;5028328;28;5149;-59
2023/07/09 02:56:14;;;;;;;;;;;;;;;;;;5028294;28;4479;-59
2023/07/09 02:58:39;;;;;;;;;;;;;;;;;;5028184;28;4465;-59
2023/07/09 03:01:05;;;;;;;;;;;;;;;;;;5029079;28;4684;-59
2023/07/09 03:03:30;;;;;;;;;;;;;;;;;;5046572;28;1971;-59
2023/07/09 03:05:55;;;;;;;;;;;;;;;;;;5040536;28;4845;-60
2023/07/09 03:08:21;;;;;;;;;;;;;;;;;;5039773;28;4548;-60
2023/07/09 03:10:46;;;;;;;;;;;;;;;;;;5025534;28;5031;-59
2023/07/09 03:13:11;;;;;;;;;;;;;;;;;;5045721;28;5123;-59
2023/07/09 03:15:36;;;;;;;;;;;;;;;;;;5041008;28;1203;-60
2023/07/09 03:18:02;;;;;;;;;;;;;;;;;;5043387;28;4655;-60
2023/07/09 03:20:27;;;;;;;;;;;;;;;;;;5044743;28;4880;-60
2023/07/09 03:22:52;;;;;;;;;;;;;;;;;;5029590;28;5279;-59
2023/07/09 03:25:18;;;;;;;;;;;;;;;;;;5041939;28;5150;-59
2023/07/09 03:27:43;;;;;;;;;;;;;;;;;;5046410;28;1349;-59
2023/07/09 03:30:08;;;;;;;;;;;;;;;;;;5042177;28;4905;-59
2023/07/09 03:32:34;;;;;;;;;;;;;;;;;;5045857;28;5000;-59
2023/07/09 03:34:59;;;;;;;;;;;;;;;;;;5043954;28;4857;-59
2023/07/09 03:37:24;;;;;;;;;;;;;;;;;;5044809;28;4874;-60
2023/07/09 03:39:49;;;;;;;;;;;;;;;;;;5047923;28;1393;-59
2023/07/09 03:42:15;;;;;;;;;;;;;;;;;;5046098;28;5529;-59
2023/07/09 03:44:40;;;;;;;;;;;;;;;;;;5045924;28;4797;-59
2023/07/09 03:47:06;;;;;;;;;;;;;;;;;;5042077;28;4467;-59
2023/07/09 03:49:31;;;;;;;;;;;;;;;;;;5044998;28;4885;-60
2023/07/09 03:51:57;;;;;;;;;;;;;;;;;;5045222;28;1168;-60
2023/07/09 03:54:22;;;;;;;;;;;;;;;;;;5043650;28;4812;-60
2023/07/09 03:56:47;;;;;;;;;;;;;;;;;;5045455;28;5005;-59
2023/07/09 03:59:12;;;;;;;;;;;;;;;;;;5044412;28;4634;-59
2023/07/09 04:01:38;;;;;;;;;;;;;;;;;;5036487;28;5200;-59
2023/07/09 04:04:03;;;;;;;;;;;;;;;;;;5023354;28;5102;-58
2023/07/09 04:06:28;;;;;;;;;;;;;;;;;;5024392;28;1936;-59
2023/07/09 04:08:53;;;;;;;;;;;;;;;;;;5022378;28;4927;-59
2023/07/09 04:11:19;;;;;;;;;;;;;;;;;;5024301;28;4498;-59
2023/07/09 04:13:44;;;;;;;;;;;;;;;;;;5024238;28;5085;-60
2023/07/09 04:16:09;;;;;;;;;;;;;;;;;;5024295;28;5099;-59
2023/07/09 04:18:36;;;;;;;;;;;;;;;;;;5007727;28;1386;-59
2023/07/09 04:21:01;;;;;;;;;;;;;;;;;;5022999;28;4878;-59
2023/07/09 04:23:26;;;;;;;;;;;;;;;;;;5026928;28;4431;-59
2023/07/09 04:25:51;;;;;;;;;;;;;;;;;;5025005;28;5051;-59
2023/07/09 04:28:17;;;;;;;;;;;;;;;;;;5027816;28;5134;-59
2023/07/09 04:30:48;;;;;;;;;;;;;;;;;;5026228;28;1343;-59
2023/07/09 04:33:17;;;;;;;;;;;;;;;;;;5028212;28;5047;-60
2023/07/09 04:35:42;;;;;;;;;;;;;;;;;;5024284;28;5059;-60
2023/07/09 04:38:08;;;;;;;;;;;;;;;;;;5027523;28;4952;-60
2023/07/09 04:40:33;;;;;;;;;;;;;;;;;;5033793;28;5106;-58
2023/07/09 04:42:59;;;;;;;;;;;;;;;;;;5035077;28;2005;-59
2023/07/09 04:45:24;;;;;;;;;;;;;;;;;;5027739;28;4955;-59
2023/07/09 04:47:49;;;;;;;;;;;;;;;;;;5017691;28;4500;-59
2023/07/09 04:50:14;;;;;;;;;;;;;;;;;;5029587;28;4974;-59
2023/07/09 04:52:40;;;;;;;;;;;;;;;;;;5022774;28;4485;-59
2023/07/09 04:55:05;;;;;;;;;;;;;;;;;;5030372;28;4518;-59
2023/07/09 04:57:30;;;;;;;;;;;;;;;;;;5027480;28;1402;-59
2023/07/09 04:59:56;;;;;;;;;;;;;;;;;;5030854;28;5007;-60
2023/07/09 05:02:21;;;;;;;;;;;;;;;;;;5037631;28;4612;-59
2023/07/09 05:04:47;;;;;;;;;;;;;;;;;;5043189;28;4912;-59
2023/07/09 05:07:12;;;;;;;;;;;;;;;;;;5046727;28;5088;-60
2023/07/09 05:09:38;;;;;;;;;;;;;;;;;;5043900;28;1553;-60
2023/07/09 05:12:03;;;;;;;;;;;;;;;;;;5049260;28;4924;-59
2023/07/09 05:14:28;;;;;;;;;;;;;;;;;;5043115;28;4956;-59
2023/07/09 05:16:54;;;;;;;;;;;;;;;;;;5048210;28;4957;-60
2023/07/09 05:19:19;;;;;;;;;;;;;;;;;;5046242;28;4972;-59
2023/07/09 05:21:44;;;;;;;;;;;;;;;;;;5058108;28;4861;-59
2023/07/09 05:24:09;;;;;;;;;;;;;;;;;;5032442;28;5245;-59
2023/07/09 05:26:35;;;;;;;;;;;;;;;;;;5045573;28;5027;-59
2023/07/09 05:29:01;;;;;;;;;;;;;;;;;;5047140;28;5212;-58
2023/07/09 05:31:26;;;;;;;;;;;;;;;;;;5047414;28;4619;-59
2023/07/09 05:33:51;;;;;;;;;;;;;;;;;;5050249;28;1667;-59
2023/07/09 05:36:18;;;;;;;;;;;;;;;;;;5046916;28;5020;-59
2023/07/09 05:38:43;;;;;;;;;;;;;;;;;;5042727;28;4861;-59
2023/07/09 05:41:08;;;;;;;;;;;;;;;;;;5048617;28;4840;-59
2023/07/09 05:43:34;;;;;;;;;;;;;;;;;;5044742;28;5008;-59
2023/07/09 05:46:00;;;;;;;;;;;;;;;;;;5043552;28;3614;-60
2023/07/09 05:48:26;;;;;;;;;;;;;;;;;;5044749;28;4597;-59
2023/07/09 05:50:51;;;;;;;;;;;;;;;;;;5048407;28;4780;-59
2023/07/09 05:53:17;;;;;;;;;;;;;;;;;;5044221;28;5263;-60
2023/07/09 05:55:42;;;;;;;;;;;;;;;;;;5044088;28;5412;-60
2023/07/09 05:58:07;;;;;;;;;;;;;;;;;;5047910;28;4988;-60
2023/07/09 06:00:32;;;;;;;;;;;;;;;;;;5047213;28;3159;-60
2023/07/09 06:02:58;;;;;;;;;;;;;;;;;;5047667;28;4502;-59
2023/07/09 06:05:23;;;;;;;;;;;;;;;;;;5046040;28;4450;-59
2023/07/09 06:07:49;;;;;;;;;;;;;;;;;;5043408;28;4478;-59
2023/07/09 06:10:15;;;;;;;;;;;;;;;;;;5044457;28;5034;-60
2023/07/09 06:12:40;;;;;;;;;;;;;;;;;;5035094;28;1402;-59
2023/07/09 06:15:06;;;;;;;;;;;;;;;;;;5044357;28;4444;-59
2023/07/09 06:17:31;;;;;;;;;;;;;;;;;;5046885;28;4969;-59
2023/07/09 06:19:56;;;;;;;;;;;;;;;;;;5046949;28;5433;-59
2023/07/09 06:22:21;;;;;;;;;;;;;;;;;;5045473;28;5122;-59
2023/07/09 06:24:47;;;;;;;;;;;;;;;;;;5043218;28;1459;-60
2023/07/09 06:27:12;;;;;;;;;;;;;;;;;;5044662;28;5804;-59
2023/07/09 06:29:37;;;;;;;;;;;;;;;;;;5062806;28;4882;-59
2023/07/09 06:32:03;;;;;;;;;;;;;;;;;;5046789;28;4812;-59
2023/07/09 06:34:28;;;;;;;;;;;;;;;;;;5045703;28;5031;-59
2023/07/09 06:36:55;;;;;;;;;;;;;;;;;;5046877;28;1361;-59
2023/07/09 06:39:21;;;;;;;;;;;;;;;;;;5043190;28;4647;-59
2023/07/09 06:41:46;;;;;;;;;;;;;;;;;;5039746;28;4528;-59
2023/07/09 06:44:11;;;;;;;;;;;;;;;;;;5045051;28;4427;-59
2023/07/09 06:46:36;;;;;;;;;;;;;;;;;;5048197;28;5011;-59
2023/07/09 06:49:02;;;;;;;;;;;;;;;;;;5045692;28;3246;-59
2023/07/09 06:51:27;;;;;;;;;;;;;;;;;;5043372;28;4904;-59
2023/07/09 06:53:53;;;;;;;;;;;;;;;;;;5046311;28;4975;-59
2023/07/09 06:56:18;;;;;;;;;;;;;;;;;;5044073;28;5210;-60
2023/07/09 06:58:45;;;;;;;;;;;;;;;;;;5046971;28;4549;-59
2023/07/09 07:01:11;;;;;;;;;;;;;;;;;;5058802;28;5191;-59
2023/07/09 07:03:36;;;;;;;;;;;;;;;;;;5045509;28;1914;-59
2023/07/09 07:06:01;;;;;;;;;;;;;;;;;;5024926;28;4971;-59
2023/07/09 07:08:27;;;;;;;;;;;;;;;;;;5044610;28;4960;-59
2023/07/09 07:11:01;;;;;;;;;;;;;;;;;;5044759;28;4931;-60
2023/07/09 07:13:27;;;;;;;;;;;;;;;;;;5044907;28;5003;-60
2023/07/09 07:15:52;;;;;;;;;;;;;;;;;;5040630;28;3198;-59
2023/07/09 07:18:18;;;;;;;;;;;;;;;;;;5045362;28;5000;-59
2023/07/09 07:20:44;;;;;;;;;;;;;;;;;;5042360;28;4523;-59
2023/07/09 07:23:09;;;;;;;;;;;;;;;;;;5042742;28;5160;-60
2023/07/09 07:25:34;;;;;;;;;;;;;;;;;;5043936;28;5042;-60
2023/07/09 07:28:00;;;;;;;;;;;;;;;;;;5041856;28;3182;-60
2023/07/09 07:30:25;;;;;;;;;;;;;;;;;;5057121;28;4976;-60
2023/07/09 07:32:50;;;;;;;;;;;;;;;;;;5045023;28;4589;-60
2023/07/09 07:35:15;;;;;;;;;;;;;;;;;;5041597;28;5047;-60
2023/07/09 07:37:41;;;;;;;;;;;;;;;;;;5042105;28;5106;-60
2023/07/09 07:40:06;;;;;;;;;;;;;;;;;;5042180;28;4977;-60
2023/07/09 07:42:32;;;;;;;;;;;;;;;;;;5043662;28;2193;-60
2023/07/09 07:44:57;;;;;;;;;;;;;;;;;;5040847;28;4964;-60
2023/07/09 07:47:22;;;;;;;;;;;;;;;;;;5044528;28;5051;-60
2023/07/09 07:49:48;;;;;;;;;;;;;;;;;;5042761;28;4549;-60
2023/07/09 07:52:13;;;;;;;;;;;;;;;;;;5045987;28;4475;-60
2023/07/09 07:54:38;;;;;;;;;;;;;;;;;;5041431;28;2913;-60
2023/07/09 07:57:03;;;;;;;;;;;;;;;;;;5042187;28;5055;-60
2023/07/09 07:59:29;;;;;;;;;;;;;;;;;;5040717;28;4955;-60
2023/07/09 08:01:54;;;;;;;;;;;;;;;;;;5044417;28;4538;-60
2023/07/09 08:04:19;;;;;;;;;;;;;;;;;;5040315;28;4959;-60
2023/07/09 08:06:45;;;;;;;;;;;;;;;;;;5044015;28;3354;-61
2023/07/09 08:09:10;;;;;;;;;;;;;;;;;;5042185;28;5061;-64
2023/07/09 08:11:35;;;;;;;;;;;;;;;;;;5040747;28;4878;-61
2023/07/09 08:14:00;;;;;;;;;;;;;;;;;;5025500;28;5158;-62
2023/07/09 08:16:26;;;;;;;;;;;;;;;;;;5042484;28;4527;-61
2023/07/09 08:18:51;;;;;;;;;;;;;;;;;;5042183;28;3020;-61
2023/07/09 08:21:17;;;;;;;;;;;;;;;;;;5038552;28;5001;-62
2023/07/09 08:23:42;;;;;;;;;;;;;;;;;;5042365;28;5211;-61
2023/07/09 08:26:08;;;;;;;;;;;;;;;;;;5042856;28;4985;-61
2023/07/09 08:28:33;;;;;;;;;;;;;;;;;;5041529;28;5037;-61
2023/07/09 08:30:58;;;;;;;;;;;;;;;;;;5041572;28;3317;-66
2023/07/09 08:33:24;;;;;;;;;;;;;;;;;;5032289;28;5042;-58
2023/07/09 08:35:49;;;;;;;;;;;;;;;;;;5041791;28;4625;-59
2023/07/09 08:38:14;;;;;;;;;;;;;;;;;;5040932;28;4748;-58
2023/07/09 08:40:41;;;;;;;;;;;;;;;;;;5043879;28;4566;-58
2023/07/09 08:43:22;;;;;;;;;;;;;;;;;;5043950;28;5091;-59
2023/07/09 08:45:50;;;;;;;;;;;;;;;;;;5042237;28;3398;-59
2023/07/09 08:48:19;;;;;;;;;;;;;;;;;;5022829;28;4638;-59
2023/07/09 08:50:48;;;;;;;;;;;;;;;;;;5055698;28;5154;-58
2023/07/09 08:53:17;;;;;;;;;;;;;;;;;;5058218;28;5081;-56
2023/07/09 08:55:42;;;;;;;;;;;;;;;;;;5038812;28;5130;-57
2023/07/09 08:58:20;;;;;;;;;;;;;;;;;;5041859;28;5007;-58
2023/07/09 09:00:51;;;;;;;;;;;;;;;;;;5024698;28;3397;-58
2023/07/09 09:03:23;;;;;;;;;;;;;;;;;;5038346;28;5076;-58
2023/07/09 09:05:48;;;;;;;;;;;;;;;;;;5044895;28;6094;-58
2023/07/09 09:08:29;;;;;;;;;;;;;;;;;;5021781;28;5018;-57
2023/07/09 09:11:00;;;;;;;;;;;;;;;;;;5056209;28;5094;-57
2023/07/09 09:13:26;;;;;;;;;;;;;;;;;;5040165;28;5205;-58
2023/07/09 09:15:52;;;;;;;;;;;;;;;;;;5057105;28;3493;-58
2023/07/09 09:18:21;;;;;;;;;;;;;;;;;;5042344;28;5132;-59
2023/07/09 09:20:47;;;;;;;;;;;;;;;;;;5060821;28;5054;-59
2023/07/09 09:23:14;;;;;;;;;;;;;;;;;;5041931;28;5014;-59
2023/07/09 09:25:40;;;;;;;;;;;;;;;;;;5043928;28;5103;-58
2023/07/09 09:28:05;;;;;;;;;;;;;;;;;;5042181;28;5091;-59
2023/07/09 09:30:31;;;;;;;;;;;;;;;;;;5043366;28;3343;-58
2023/07/09 09:33:05;;;;;;;;;;;;;;;;;;5041977;28;4415;-59
2023/07/09 09:35:34;;;;;;;;;;;;;;;;;;5040419;28;5040;-59
2023/07/09 09:37:59;;;;;;;;;;;;;;;;;;5060521;28;5060;-59
2023/07/09 09:40:25;;;;;;;;;;;;;;;;;;5043801;28;5085;-59
2023/07/09 09:42:51;;;;;;;;;;;;;;;;;;5047653;28;1980;-59
2023/07/09 09:45:17;;;;;;;;;;;;;;;;;;5047774;28;5010;-59
2023/07/09 09:47:43;;;;;;;;;;;;;;;;;;5044699;28;5008;-58
2023/07/09 09:50:12;;;;;;;;;;;;;;;;;;5045989;28;4475;-59
2023/07/09 09:52:37;;;;;;;;;;;;;;;;;;5024562;28;4646;-58
2023/07/09 09:55:08;;;;;;;;;;;;;;;;;;5045152;28;4859;-56
2023/07/09 09:57:33;;;;;;;;;;;;;;;;;;5041968;28;3334;-59
2023/07/09 09:59:59;;;;;;;;;;;;;;;;;;5047447;28;5039;-59
2023/07/09 10:02:24;;;;;;;;;;;;;;;;;;5041625;28;4869;-58
2023/07/09 10:04:50;;;;;;;;;;;;;;;;;;5042258;28;4556;-59
2023/07/09 10:07:24;;;;;;;;;;;;;;;;;;5058670;28;4478;-58
2023/07/09 10:09:51;;;;;;;;;;;;;;;;;;5042366;28;3307;-59
2023/07/09 10:12:16;;;;;;;;;;;;;;;;;;5045384;28;4991;-58
2023/07/09 10:14:50;;;;;;;;;;;;;;;;;;5044739;28;4893;-59
2023/07/09 10:17:18;;;;;;;;;;;;;;;;;;5045297;28;4633;-59
2023/07/09 10:19:56;;;;;;;;;;;;;;;;;;5047169;28;5143;-58
2023/07/09 10:22:36;;;;;;;;;;;;;;;;;;5009139;28;4679;-59
2023/07/09 10:25:22;;;;;;;;;;;;;;;;;;5044899;28;3600;-58
2023/07/09 10:27:47;;;;;;;;;;;;;;;;;;5039665;28;5418;-58
2023/07/09 10:30:31;;;;;;;;;;;;;;;;;;5041022;28;4513;-58
2023/07/09 10:33:14;;;;;;;;;;;;;;;;;;5044885;28;4933;-59
2023/07/09 10:35:46;;;;;;;;;;;;;;;;;;5026357;28;5179;-59
2023/07/09 10:38:11;;;;;;;;;;;;;;;;;;5061629;28;5088;-58
2023/07/09 10:40:37;;;;;;;;;;;;;;;;;;5043658;28;5158;-58
2023/07/09 10:43:03;;;;;;;;;;;;;;;;;;5048651;28;5068;-57
2023/07/09 10:45:28;;;;;;;;;;;;;;;;;;5022089;28;3334;-58
2023/07/09 10:48:04;;;;;;;;;;;;;;;;;;5046785;28;5227;-58
2023/07/09 10:50:34;;;;;;;;;;;;;;;;;;5025139;28;5341;-58
2023/07/09 10:53:02;;;;;;;;;;;;;;;;;;5024350;28;5157;-58
2023/07/09 10:55:38;;;;;;;;;;;;;;;;;;5040712;28;4496;-58
2023/07/09 10:58:19;;;;;;;;;;;;;;;;;;5056846;28;5093;-58
2023/07/09 11:00:44;;;;;;;;;;;;;;;;;;5040253;28;3214;-58
2023/07/09 11:03:16;;;;;;;;;;;;;;;;;;5060058;28;4851;-52
2023/07/09 11:05:41;;;;;;;;;;;;;;;;;;5058044;28;4657;-53
2023/07/09 11:08:17;;;;;;;;;;;;;;;;;;5042021;28;5892;-55
2023/07/09 11:10:56;;;;;;;;;;;;;;;;;;5021310;28;4639;-53
2023/07/09 11:13:36;;;;;;;;;;;;;;;;;;5025403;28;4902;-56
2023/07/09 11:16:01;;;;;;;;;;;;;;;;;;5042092;28;3143;-54
2023/07/09 11:18:29;;;;;;;;;;;;;;;;;;5040878;28;4599;-52
2023/07/09 11:20:55;;;;;;;;;;;;;;;;;;5023602;28;4991;-57
2023/07/09 11:23:22;;;;;;;;;;;;;;;;;;5042128;28;5144;-54
2023/07/09 11:26:02;;;;;;;;;;;;;;;;;;5045391;28;5086;-55
2023/07/09 11:28:34;;;;;;;;;;;;;;;;;;5042507;28;5051;-54
2023/07/09 11:31:06;;;;;;;;;;;;;;;;;;5045159;28;3257;-57
2023/07/09 11:33:31;;;;;;;;;;;;;;;;;;5039390;28;4603;-60
2023/07/09 11:36:06;;;;;;;;;;;;;;;;;;5042098;28;5051;-58
2023/07/09 11:38:38;;;;;;;;;;;;;;;;;;5042418;28;4956;-58
2023/07/09 11:41:22;;;;;;;;;;;;;;;;;;5041032;28;4695;-58
2023/07/09 11:43:47;;;;;;;;;;;;;;;;;;5027968;28;4911;-58
2023/07/09 11:46:14;;;;;;;;;;;;;;;;;;5054683;28;4970;-58
2023/07/09 11:48:40;;;;;;;;;;;;;;;;;;5037748;28;3296;-58
2023/07/09 11:51:13;;;;;;;;;;;;;;;;;;5043197;28;4485;-60
2023/07/09 11:53:44;;;;;;;;;;;;;;;;;;5026274;28;4958;-58
2023/07/09 11:56:09;;;;;;;;;;;;;;;;;;5056005;28;4456;-58
2023/07/09 11:58:34;;;;;;;;;;;;;;;;;;5046328;28;4928;-59
2023/07/09 12:01:01;;;;;;;;;;;;;;;;;;5045825;28;3114;-59
2023/07/09 12:03:27;;;;;;;;;;;;;;;;;;5042787;28;4554;-58
2023/07/09 12:05:53;;;;;;;;;;;;;;;;;;5045221;28;4485;-58
2023/07/09 12:08:19;;;;;;;;;;;;;;;;;;5059990;28;5049;-59
2023/07/09 12:10:44;;;;;;;;;;;;;;;;;;5028594;28;4654;-58
2023/07/09 12:13:09;;;;;;;;;;;;;;;;;;5044818;28;5167;-58
2023/07/09 12:15:35;;;;;;;;;;;;;;;;;;5056735;28;1709;-58
2023/07/09 12:18:02;;;;;;;;;;;;;;;;;;5044260;28;5026;-58
2023/07/09 12:20:31;;;;;;;;;;;;;;;;;;5045763;28;5013;-57
2023/07/09 12:22:56;;;;;;;;;;;;;;;;;;5060670;28;5082;-57
2023/07/09 12:25:26;;;;;;;;;;;;;;;;;;5042986;28;5014;-57
2023/07/09 12:27:51;;;;;;;;;;;;;;;;;;5045147;28;2176;-58
2023/07/09 12:30:17;;;;;;;;;;;;;;;;;;5045363;28;4925;-58
2023/07/09 12:32:46;;;;;;;;;;;;;;;;;;5041761;28;5220;-57
2023/07/09 12:35:12;;;;;;;;;;;;;;;;;;5043456;28;5881;-58
2023/07/09 12:37:37;;;;;;;;;;;;;;;;;;5044011;28;5155;-58
2023/07/09 12:40:04;;;;;;;;;;;;;;;;;;5059369;28;4462;-58
2023/07/09 12:42:30;;;;;;;;;;;;;;;;;;5044967;28;3166;-58
2023/07/09 12:44:55;;;;;;;;;;;;;;;;;;5026385;28;4437;-58
2023/07/09 12:47:20;;;;;;;;;;;;;;;;;;5045206;28;4954;-58
2023/07/09 12:49:50;;;;;;;;;;;;;;;;;;5058648;28;4872;-61
2023/07/09 12:52:19;;;;;;;;;;;;;;;;;;5041331;28;4622;-60
2023/07/09 12:55:04;;;;;;;;;;;;;;;;;;5044083;28;1428;-63
2023/07/09 12:57:30;;;;;;;;;;;;;;;;;;5043733;28;4510;-69
2023/07/09 12:59:56;;;;;;;;;;;;;;;;;;5045684;28;5054;-71
2023/07/09 13:02:25;;;;;;;;;;;;;;;;;;5041416;28;4971;-70
2023/07/09 13:04:50;;;;;;;;;;;;;;;;;;5048561;28;4884;-70
2023/07/09 13:07:36;;;;;;;;;;;;;;;;;;5061446;28;5133;-70
2023/07/09 13:10:06;;;;;;;;;;;;;;;;;;5047745;28;3381;-62
2023/07/09 13:12:32;;;;;;;;;;;;;;;;;;5043882;28;4970;-60
2023/07/09 13:14:57;;;;;;;;;;;;;;;;;;5047839;28;5046;-62
2023/07/09 13:17:22;;;;;;;;;;;;;;;;;;5046951;28;4983;-62
2023/07/09 13:19:48;;;;;;;;;;;;;;;;;;5048041;28;4527;-63
2023/07/09 13:22:16;;;;;;;;;;;;;;;;;;5050710;28;5103;-62
2023/07/09 13:24:41;;;;;;;;;;;;;;;;;;5048996;28;3233;-62
2023/07/09 13:27:08;;;;;;;;;;;;;;;;;;5045694;28;4875;-62
2023/07/09 13:29:33;;;;;;;;;;;;;;;;;;5026461;28;5104;-63
2023/07/09 13:31:59;;;;;;;;;;;;;;;;;;5047897;28;5063;-63
2023/07/09 13:34:25;;;;;;;;;;;;;;;;;;5044791;28;4541;-67
2023/07/09 13:36:51;;;;;;;;;;;;;;;;;;5046576;28;3044;-68
2023/07/09 13:39:16;;;;;;;;;;;;;;;;;;5044748;28;5025;-69
2023/07/09 13:41:45;;;;;;;;;;;;;;;;;;5048218;28;4426;-65
2023/07/09 13:44:20;;;;;;;;;;;;;;;;;;5060818;28;4597;-69
2023/07/09 13:46:46;;;;;;;;;;;;;;;;;;5047648;28;4975;-69
2023/07/09 13:49:13;;;;;;;;;;;;;;;;;;5047102;28;4699;-68
2023/07/09 13:51:39;;;;;;;;;;;;;;;;;;5047799;28;3335;-66
2023/07/09 13:54:06;;;;;;;;;;;;;;;;;;5047006;28;4962;-67
2023/07/09 13:56:31;;;;;;;;;;;;;;;;;;5047910;28;5020;-68
2023/07/09 13:58:56;;;;;;;;;;;;;;;;;;5047864;28;5000;-66
2023/07/09 14:01:22;;;;;;;;;;;;;;;;;;5030143;28;4530;-60
2023/07/09 14:03:47;;;;;;;;;;;;;;;;;;5042580;28;1906;-63
2023/07/09 14:06:14;;;;;;;;;;;;;;;;;;5044254;28;4598;-66
2023/07/09 14:08:40;;;;;;;;;;;;;;;;;;5047512;28;4908;-65
2023/07/09 14:11:11;;;;;;;;;;;;;;;;;;5041726;28;5067;-66
2023/07/09 14:13:37;;;;;;;;;;;;;;;;;;5047926;28;4692;-68
2023/07/09 14:16:03;;;;;;;;;;;;;;;;;;5047780;28;1112;-68
2023/07/09 14:18:28;;;;;;;;;;;;;;;;;;5044146;28;4937;-65
2023/07/09 14:20:53;;;;;;;;;;;;;;;;;;5043042;28;4715;-64
2023/07/09 14:23:18;;;;;;;;;;;;;;;;;;5042430;28;5178;-67
2023/07/09 14:25:44;;;;;;;;;;;;;;;;;;5042521;28;5230;-59
2023/07/09 14:28:13;;;;;;;;;;;;;;;;;;5045849;28;5075;-69
2023/07/09 14:30:38;;;;;;;;;;;;;;;;;;5045293;28;3409;-69
2023/07/09 14:33:04;;;;;;;;;;;;;;;;;;5029739;28;5110;-69
2023/07/09 14:35:29;;;;;;;;;;;;;;;;;;5029688;28;5036;-69
2023/07/09 14:37:55;;;;;;;;;;;;;;;;;;5039567;28;5050;-64
2023/07/09 14:40:20;;;;;;;;;;;;;;;;;;5041539;28;4519;-61
2023/07/09 14:42:46;;;;;;;;;;;;;;;;;;5056425;28;2010;-63
2023/07/09 14:45:19;;;;;;;;;;;;;;;;;;5028340;28;4996;-58
2023/07/09 14:47:45;;;;;;;;;;;;;;;;;;5042519;28;5020;-63
2023/07/09 14:50:10;;;;;;;;;;;;;;;;;;5040496;28;4771;-65
2023/07/09 14:52:35;;;;;;;;;;;;;;;;;;5045152;28;5166;-67
2023/07/09 14:55:01;;;;;;;;;;;;;;;;;;5044948;28;3235;-66
2023/07/09 14:57:29;;;;;;;;;;;;;;;;;;5042445;28;4908;-66
2023/07/09 14:59:54;;;;;;;;;;;;;;;;;;5041368;28;4462;-66
2023/07/09 15:02:32;;;;;;;;;;;;;;;;;;5044387;28;5324;-66
2023/07/09 15:04:57;;;;;;;;;;;;;;;;;;5056247;28;5133;-66
2023/07/09 15:07:23;;;;;;;;;;;;;;;;;;5041011;28;5036;-66
2023/07/09 15:09:48;;;;;;;;;;;;;;;;;;5046226;28;1449;-66
2023/07/09 15:12:15;;;;;;;;;;;;;;;;;;5042751;28;5127;-66
2023/07/09 15:14:40;;;;;;;;;;;;;;;;;;5037587;28;4621;-66
2023/07/09 15:17:07;;;;;;;;;;;;;;;;;;5045141;28;4448;-66
2023/07/09 15:19:32;;;;;;;;;;;;;;;;;;5023522;28;4614;-66
2023/07/09 15:21:57;;;;;;;;;;;;;;;;;;5041921;28;4924;-65
2023/07/09 15:24:27;;;;;;;;;;;;;;;;;;5045447;28;4448;-67
2023/07/09 15:26:53;;;;;;;;;;;;;;;;;;5025452;28;5032;-67
2023/07/09 15:29:18;;;;;;;;;;;;;;;;;;5040208;28;4936;-65
2023/07/09 15:31:43;;;;;;;;;;;;;;;;;;5046191;28;5126;-67
2023/07/09 15:34:09;;;;;;;;;;;;;;;;;;5046973;28;5038;-66
2023/07/09 15:36:34;;;;;;;;;;;;;;;;;;5029482;28;1496;-67
2023/07/09 15:38:59;;;;;;;;;;;;;;;;;;5028587;28;4487;-67
2023/07/09 15:41:25;;;;;;;;;;;;;;;;;;5046506;28;5043;-67
2023/07/09 15:43:50;;;;;;;;;;;;;;;;;;5043611;28;4910;-67
2023/07/09 15:46:16;;;;;;;;;;;;;;;;;;5042090;28;4852;-66
2023/07/09 15:48:42;;;;;;;;;;;;;;;;;;5043052;28;1472;-66
2023/07/09 15:51:07;;;;;;;;;;;;;;;;;;5027110;28;5189;-67
2023/07/09 15:53:32;;;;;;;;;;;;;;;;;;5024831;28;5193;-66
2023/07/09 15:55:58;;;;;;;;;;;;;;;;;;5041378;28;4945;-66
2023/07/09 15:58:25;;;;;;;;;;;;;;;;;;5057152;28;5146;-67
2023/07/09 16:00:50;;;;;;;;;;;;;;;;;;5037582;28;1157;-67
2023/07/09 16:03:15;;;;;;;;;;;;;;;;;;5043535;28;5141;-65
2023/07/09 16:05:40;;;;;;;;;;;;;;;;;;5038324;28;4920;-66
2023/07/09 16:08:07;;;;;;;;;;;;;;;;;;5043364;28;4858;-66
2023/07/09 16:10:32;;;;;;;;;;;;;;;;;;5026313;28;4474;-67
2023/07/09 16:12:57;;;;;;;;;;;;;;;;;;5042984;28;1475;-67
2023/07/09 16:15:23;;;;;;;;;;;;;;;;;;5037850;28;4953;-65
2023/07/09 16:17:48;;;;;;;;;;;;;;;;;;5043446;28;4503;-66
2023/07/09 16:20:14;;;;;;;;;;;;;;;;;;5043965;28;4447;-67
2023/07/09 16:22:41;;;;;;;;;;;;;;;;;;5043913;28;4916;-64
2023/07/09 16:25:13;;;;;;;;;;;;;;;;;;5040775;28;5199;-66
2023/07/09 16:27:38;;;;;;;;;;;;;;;;;;5042415;28;3325;-67
2023/07/09 16:30:33;;;;;;;;;;;;;;;;;;5041951;28;4483;-65
2023/07/09 16:32:58;;;;;;;;;;;;;;;;;;5031799;28;4545;-66
2023/07/09 16:35:25;;;;;;;;;;;;;;;;;;5044804;28;5237;-66
2023/07/09 16:37:50;;;;;;;;;;;;;;;;;;5042789;28;4907;-66
2023/07/09 16:40:16;;;;;;;;;;;;;;;;;;5029842;28;4688;-63
2023/07/09 16:42:41;;;;;;;;;;;;;;;;;;5047751;28;3111;-63
2023/07/09 16:45:07;;;;;;;;;;;;;;;;;;5048082;28;4991;-66
2023/07/09 16:47:33;;;;;;;;;;;;;;;;;;5028531;28;5089;-65
2023/07/09 16:49:58;;;;;;;;;;;;;;;;;;5058079;28;4559;-63
2023/07/09 16:52:25;;;;;;;;;;;;;;;;;;5047853;28;4516;-61
2023/07/09 16:54:51;;;;;;;;;;;;;;;;;;5050783;28;3286;-61
2023/07/09 16:57:17;;;;;;;;;;;;;;;;;;5048128;28;4603;-61
2023/07/09 16:59:42;;;;;;;;;;;;;;;;;;5048904;28;4998;-60
2023/07/09 17:02:40;;;;;;;;;;;;;;;;;;5027442;28;4453;-66